Dades de l'estació automàtica Monells

?
?

Resum diari

21:00 TU
Dades diàries de l'estació meteorològica
Temperatura mitjana 13.1 °C
Temperatura màxima 20.5 °C 12:50 TU
Temperatura mínima 6.8 °C 21:27 TU
Humitat relativa mitjana 78%
Precipitació acumulada 0.0 mm
Ratxa màxima del vent (2 m) 17.3 km/h - 349º 0:56 TU
Irradiació solar global 8.9 MJ/m2

El tram horari està expressat en Temps Universal (TU). Cal sumar una hora en horari d'hivern i dues en horari d'estiu per passar a l'hora oficial.

Monells

Metadades estació meteorològica
Municipi Cruïlles, Monells i Sant Sadurní de l'Heura
Comarca Baix Empordà
Altitud 60 m
Data alta 04.03.1998
Estat actual Operativa
Dades de període
Període
TU
TM
°C
TX
°C
TN
°C
HRM
%
PPT
mm
VVM (2 m)
km/h
DVM (2 m)
graus
VVX (2 m)
km/h
RS
W/m2
00:00 - 00:30 13.7 13.9 13.6 83 0.0 6.8 354 14.0 0
00:30 - 01:00 13.5 13.6 13.5 82 0.0 7.9 349 17.3 0
01:00 - 01:30 13.5 13.6 13.4 81 0.0 9.4 354 16.9 0
01:30 - 02:00 13.4 13.4 13.4 79 0.0 8.3 350 14.8 0
02:00 - 02:30 13.4 13.5 13.4 77 0.0 7.9 347 15.8 0
02:30 - 03:00 13.3 13.4 13.3 76 0.0 6.8 348 12.6 0
03:00 - 03:30 13.3 13.4 13.2 75 0.0 5.8 339 11.5 0
03:30 - 04:00 13.3 13.6 13.2 74 0.0 5.0 332 13.0 0
04:00 - 04:30 13.2 13.3 13.2 76 0.0 4.7 336 10.4 0
04:30 - 05:00 13.1 13.3 12.2 76 0.0 5.4 358 12.2 0
05:00 - 05:30 11.1 12.1 10.3 85 0.0 1.4 98 4.0 0
05:30 - 06:00 9.7 10.8 9.0 91 0.0 1.1 250 3.2 0
06:00 - 06:30 8.9 9.5 8.1 94 0.0 1.1 246 3.2 0
06:30 - 07:00 8.2 8.4 8.0 96 0.0 1.4 233 5.4 0
07:00 - 07:30 8.0 8.5 7.7 97 0.0 2.9 212 4.3 28
07:30 - 08:00 8.8 9.7 8.1 97 0.0 2.9 220 4.7 95
08:00 - 08:30 10.5 11.2 9.8 92 0.0 3.2 215 5.4 148
08:30 - 09:00 12.4 13.7 11.3 83 0.0 3.6 204 5.8 231
09:00 - 09:30 14.8 15.9 13.8 73 0.0 3.6 194 6.5 296
09:30 - 10:00 17.1 17.8 15.9 62 0.0 2.9 221 9.0 352
10:00 - 10:30 17.9 18.4 17.4 52 0.0 3.6 327 10.1 394
10:30 - 11:00 18.2 18.6 17.9 46 0.0 3.2 295 9.4 423
11:00 - 11:30 18.5 19.0 18.1 47 0.0 2.9 359 9.0 438
11:30 - 12:00 18.8 19.2 18.4 46 0.0 2.5 269 7.2 440
12:00 - 12:30 19.5 20.2 19.1 46 0.0 1.8 199 7.9 427
12:30 - 13:00 19.8 20.5 19.4 45 0.0 2.2 240 8.6 403
13:00 - 13:30 19.8 20.2 19.3 43 0.0 3.2 158 8.3 366
13:30 - 14:00 19.7 20.3 19.2 43 0.0 2.9 155 7.2 314
14:00 - 14:30 18.5 20.1 17.5 62 0.0 3.6 69 9.0 252
14:30 - 15:00 16.9 17.7 16.5 76 0.0 3.6 56 8.6 181
15:00 - 15:30 15.9 16.4 15.3 80 0.0 4.3 57 10.1 111
15:30 - 16:00 14.7 15.2 13.8 85 0.0 4.7 52 9.4 45
16:00 - 16:30 13.4 13.8 12.9 88 0.0 3.6 19 7.9 4
16:30 - 17:00 12.5 12.9 11.8 90 0.0 1.4 2 4.7 0
17:00 - 17:30 10.9 12.1 10.2 93 0.0 0.4 233 2.2 0
17:30 - 18:00 9.9 10.3 9.6 96 0.0 0.7 234 3.2 0
18:00 - 18:30 9.3 9.7 9.0 97 0.0 2.5 228 5.0 0
18:30 - 19:00 8.7 9.0 8.2 97 0.0 0.7 236 2.5 0
19:00 - 19:30 8.4 8.9 8.0 98 0.0 2.9 233 5.0 0
19:30 - 20:00 8.2 8.3 7.8 97 0.0 1.8 227 5.4 0
20:00 - 20:30 7.7 8.0 7.4 98 0.0 3.2 218 4.7 0
20:30 - 21:00 7.2 7.5 7.1 98 0.0 3.2 215 4.7 0
21:00 - 21:30 7.0 7.2 6.8 98 0.0 0.4 195 2.5 0

Les dades en taronja només han passat un control de qualitat automàtic. Resta pendent la seva validació definitiva.